• Join FlightAware (Why Join?)
  • Login
  • US Flag 
Gobble Gobble! 
11:14PM EST


 

Airport Tracker/Info


-or-


 

Live Flight TrackerFlight Track Log ✈ N3746H ✈ 22-Apr-2013 ✈ KCVG - KSEA

Flight Track Log - Related Links

Times and Time Zones

All times are in EDT time to prevent confusion due to time zone crossing. See the N3746H flight status page for this flight to view local times or setup timezone preferences in your user account.

Time Position Orientation Groundspeed Altitude Reporting Facility
EDT Latitude Longitude Course Direction KTS MPH feet Rate Location/Type
08:03PM 39.0500 -84.7000 297° West 185 213 1,500  Level Cincinnati TRACON
08:04PM 39.0500 -84.7833 270° West 236 272 3,400 2,520 Climbing Cincinnati TRACON
08:05PM 39.0500 -84.8833 270° West 279 321 6,800 3,180 Climbing Cincinnati TRACON
08:06PM 38.9621 -84.8597 311° West  Level FlightAware Approximate
08:06PM 39.0583 -84.9981 275° West 275 316 10,500  Level Indianapolis Center
08:07PM 39.0370 -84.9722 311° West  Level FlightAware Approximate
08:07PM 39.0967 -85.1042 295° West 319 367 11,600  Level Indianapolis Center
08:08PM 39.0903 -85.1008 297° West  Level FlightAware Approximate
08:08PM 39.1447 -85.2283 297° West 378 435 13,900  Level Indianapolis Center
08:09PM 39.1917 -85.3531 296° West 400 460 16,300 2,100 Climbing Indianapolis Center
08:10PM 39.2539 -85.4767 303° West 409 471 18,300 2,040 Climbing Indianapolis Center
08:11PM 39.3328 -85.5967 310° West 423 487 20,500 1,980 Climbing Indianapolis Center
08:12PM 39.4075 -85.7169 309° West 428 493 22,400 1,680 Climbing Indianapolis Center
08:13PM 39.4833 -85.8369 309° West 430 495 24,000 1,320 Climbing Indianapolis Center
08:14PM 39.5322 -85.9808 294° West 444 511 25,200 1,800 Climbing Indianapolis Center
08:15PM 39.5269 -86.1814 268° West 459 528 27,800 2,340 Climbing Indianapolis Center
08:16PM 39.5225 -86.3333 268° West 429 494 30,100 1,860 Climbing Indianapolis Center
08:17PM 39.5164 -86.4844 267° West 421 484 31,700 1,560 Climbing Indianapolis Center
08:18PM 39.5114 -86.6319 268° West 414 476 33,300 1,380 Climbing Indianapolis Center
08:19PM 39.5067 -86.7767 268° West 406 467 34,600 900 Climbing Indianapolis Center
08:21PM 39.5008 -86.9233 267° West 408 470 35,200 600 Climbing Indianapolis Center
08:22PM 39.4953 -87.0708 267° West 412 474 35,900 360 Climbing Indianapolis Center
08:23PM 39.4889 -87.2206 267° West 416 479 36,000  Climbing Indianapolis Center
08:24PM 39.5069 -87.3656 279° West 412 474 36,000  Level Indianapolis Center
08:25PM 39.5292 -87.5097 281° West 408 470 36,000  Level Indianapolis Center
08:26PM 39.5569 -87.6811 282° West 404 465 36,000  Level Indianapolis Center
08:27PM 39.5853 -87.8208 285° West 402 463 36,000  Level Indianapolis Center
08:28PM 39.6394 -87.9425 300° West 395 455 36,000  Level Indianapolis Center
08:29PM 39.6950 -88.0656 300° West 394 453 36,000  Level Indianapolis Center
08:30PM 39.7525 -88.1892 301° West 396 456 36,000  Level Indianapolis Center
08:31PM 39.8100 -88.3156 301° West 400 460 36,000  Level Indianapolis Center
08:32PM 39.8589 -88.4344 298° West 402 463 36,000  Level Kansas City Center
08:33PM 39.9158 -88.5594 301° West 402 463 36,000  Level Kansas City Center
08:34PM 39.9744 -88.6864 301° West 405 466 36,000  Level Kansas City Center
08:35PM 40.0414 -88.8394 300° West 406 467 36,000  Level Kansas City Center
08:36PM 40.0961 -88.9656 300° West 402 463 36,000  Level Kansas City Center
08:37PM 40.1517 -89.0908 300° West 399 459 36,000  Level Kansas City Center
08:38PM 40.2061 -89.2161 300° West 397 457 36,000  Level Kansas City Center
08:39PM 40.2611 -89.3414 300° West 396 456 36,000  Level Kansas City Center
08:40PM 40.3158 -89.4694 299° West 399 459 36,000  Level Kansas City Center
08:41PM 40.3822 -89.6214 300° West 398 458 36,000  Level Chicago Center
08:42PM 40.4375 -89.7514 299° West 402 463 36,000  Level Chicago Center
08:43PM 40.4903 -89.8717 300° West 408 470 36,000  Level Chicago Center
08:44PM 40.5450 -90.0011 299° West 408 470 36,000  Level Chicago Center
08:45PM 40.6108 -90.1561 299° West 407 468 36,000  Level Chicago Center
08:46PM 40.6625 -90.2806 299° West 411 473 36,000  Level Chicago Center
08:47PM 40.7181 -90.4122 299° West 411 473 36,000  Level Chicago Center
08:48PM 40.7742 -90.5433 300° West 411 473 36,000  Level Chicago Center
08:49PM 40.8281 -90.6764 298° West 412 474 36,000  Level Chicago Center
08:50PM 40.8828 -90.8081 299° West 410 472 36,000  Level Chicago Center
08:51PM 40.9478 -90.9661 299° West 408 470 36,000  Level Chicago Center
08:52PM 41.0014 -91.0981 298° West 407 468 36,000  Level Chicago Center
08:53PM 41.0561 -91.2283 299° West 406 467 36,000  Level Chicago Center
08:54PM 41.1094 -91.3581 299° West 403 464 36,000  Level Chicago Center
08:55PM 41.1617 -91.4894 298° West 402 463 36,000  Level Chicago Center
08:56PM 41.2139 -91.6181 298° West 399 459 36,000  Level Chicago Center
08:57PM 41.2656 -91.7469 298° West 398 458 36,000  Level Chicago Center
08:58PM 41.3275 -91.9014 298° West 398 458 36,000  Level Chicago Center
09:00PM 41.3786 -92.0325 297° West 400 460 36,000  Level Chicago Center
09:01PM 41.4308 -92.1631 298° West 402 463 36,000  Level Chicago Center
09:02PM 41.4831 -92.2944 298° West 402 463 36,000  Level Chicago Center
09:03PM 41.5347 -92.4278 297° West 404 465 36,000  Level Chicago Center
09:04PM 41.5878 -92.5606 298° West 405 466 36,000  Level Chicago Center
09:04PM 41.6267 -92.6636 297° West 408 470 36,000  Level Minneapolis Center
09:05PM 41.6783 -92.7958 298° West 406 467 36,000  Level Minneapolis Center
09:06PM 41.7289 -92.9281 297° West 405 466 36,000  Level Minneapolis Center
09:07PM 41.7814 -93.0628 298° West 408 470 36,000  Level Minneapolis Center
09:08PM 41.8419 -93.2225 297° West 406 467 36,000  Level Minneapolis Center
09:09PM 41.8933 -93.3575 297° West 409 471 36,000  Level Minneapolis Center
09:10PM 41.9478 -93.4989 297° West 405 466 36,000  Level Minneapolis Center
09:11PM 41.9986 -93.6333 297° West 406 467 36,000  Level Minneapolis Center
09:13PM 42.0483 -93.7686 296° West 408 470 36,000  Level Minneapolis Center
09:14PM 42.1000 -93.9017 298° West 405 466 36,000  Level Minneapolis Center
09:15PM 42.1506 -94.0383 297° West 405 466 36,000  Level Minneapolis Center
09:16PM 42.2019 -94.1742 297° West 408 470 36,000  Level Minneapolis Center
09:17PM 42.2614 -94.3394 296° West 409 471 36,000  Level Minneapolis Center
09:18PM 42.3117 -94.4778 296° West 411 473 36,000  Level Minneapolis Center
09:19PM 42.3611 -94.6158 296° West 410 472 36,000  Level Minneapolis Center
09:20PM 42.4111 -94.7539 296° West 411 473 36,000  Level Minneapolis Center
09:21PM 42.4608 -94.8922 296° West 411 473 36,000  Level Minneapolis Center
09:22PM 42.5106 -95.0297 296° West 409 471 36,000  Level Minneapolis Center
09:23PM 42.5592 -95.1672 296° West 407 468 36,000  Level Minneapolis Center
09:24PM 42.6172 -95.3325 296° West 406 467 36,000  Level Minneapolis Center
09:25PM 42.6667 -95.4700 296° West 406 467 36,000  Level Minneapolis Center
09:26PM 42.7161 -95.6069 296° West 405 466 36,000  Level Minneapolis Center
09:27PM 42.7589 -95.7317 295° West 403 464 36,000  Level Minneapolis Center
09:28PM 42.8158 -95.8961 295° West 402 463 36,000  Level Minneapolis Center
09:29PM 42.8639 -96.0358 295° West 405 466 36,000  Level Minneapolis Center
09:30PM 42.9125 -96.1756 295° West 407 468 36,000  Level Minneapolis Center
09:31PM 42.9606 -96.3167 295° West 410 472 36,000  Level Minneapolis Center
09:32PM 43.0092 -96.4575 295° West 409 471 36,000  Level Minneapolis Center
09:33PM 43.0561 -96.5989 294° West 409 471 36,000  Level Minneapolis Center
09:34PM 43.1047 -96.7425 295° West 412 474 36,000  Level Minneapolis Center
09:35PM 43.1525 -96.8847 295° West 413 475 36,000  Level Minneapolis Center
09:36PM 43.2097 -97.0553 295° West 411 473 36,000  Level Minneapolis Center
09:37PM 43.2569 -97.1975 295° West 411 473 36,000  Level Minneapolis Center
09:38PM 43.3039 -97.3403 294° West 411 473 36,000  Level Minneapolis Center
09:39PM 43.3500 -97.4811 294° West 407 468 36,000  Level Minneapolis Center
09:40PM 43.3961 -97.6219 294° West 404 465 36,000  Level Minneapolis Center
09:41PM 43.4411 -97.7622 294° West 403 464 36,000  Level Minneapolis Center
09:42PM 43.4867 -97.9044 294° West 405 466 36,000  Level Minneapolis Center
09:43PM 43.5322 -98.0453 294° West 404 465 36,000  Level Minneapolis Center
09:44PM 43.5864 -98.2150 294° West 404 465 36,000  Level Minneapolis Center
09:45PM 43.6322 -98.3567 294° West 404 465 36,000  Level Minneapolis Center
09:46PM 43.6761 -98.4969 293° West 401 461 36,000  Level Minneapolis Center
09:47PM 43.7203 -98.6392 293° West 402 463 36,000  Level Minneapolis Center
09:48PM 43.7653 -98.7814 294° West 401 461 36,000  Level Minneapolis Center
09:49PM 43.8106 -98.9233 294° West 402 463 36,000  Level Minneapolis Center
09:50PM 43.8550 -99.0714 293° West 412 474 36,000  Level Minneapolis Center
09:52PM 43.8981 -99.2169 292° West 409 471 36,000  Level Minneapolis Center
09:53PM 43.9433 -99.3617 294° West 409 471 36,000  Level Minneapolis Center
09:54PM 43.9961 -99.5381 293° West 411 473 36,000  Level Minneapolis Center
09:55PM 44.0403 -99.6836 293° West 409 471 36,000  Level Minneapolis Center
09:56PM 44.0836 -99.8306 292° West 409 471 36,000  Level Minneapolis Center
09:57PM 44.1275 -99.9764 293° West 409 471 36,000  Level Minneapolis Center
09:58PM 44.1706 -100.1214 293° West 406 467 36,000  Level Minneapolis Center
09:59PM 44.2133 -100.2686 292° West 407 468 36,000  Level Minneapolis Center
10:00PM 44.2569 -100.4153 293° West 408 470 36,000  Level Minneapolis Center
10:01PM 44.3236 -100.6492 292° West 407 468 36,000  Level Denver Center
10:02PM 44.3333 -100.6803 294° West 409 471 36,000  Level Minneapolis Center
10:03PM 44.3764 -100.8294 292° West 411 473 36,000  Level Minneapolis Center
10:04PM 44.4267 -101.0086 292° West 412 474 36,000  Level Minneapolis Center
10:05PM 44.4703 -101.1581 292° West 412 474 36,000  Level Minneapolis Center
10:06PM 44.5122 -101.3075 292° West 412 474 36,000  Level Minneapolis Center
10:07PM 44.5553 -101.4583 292° West 413 475 36,000  Level Minneapolis Center
10:08PM 44.5997 -101.6089 293° West 415 478 36,000  Level Minneapolis Center
10:09PM 44.6406 -101.7581 291° West 412 474 36,000  Level Minneapolis Center
10:10PM 44.6811 -101.9086 291° West 411 473 36,000  Level Minneapolis Center
10:11PM 44.7233 -102.0603 291° West 414 476 36,000  Level Minneapolis Center
10:12PM 44.7536 -102.1797 290° West 413 475 36,000  Level Denver Center
10:13PM 44.8192 -102.4242 291° West 417 480 36,000  Level Denver Center
10:14PM 44.8606 -102.5753 291° West 416 479 36,000  Level Denver Center
10:14PM 44.8792 -102.6361 293° West 414 476 36,000  Level Minneapolis Center
10:16PM 44.9189 -102.7886 290° West 414 476 36,000  Level Minneapolis Center
10:17PM 44.9597 -102.9369 291° West 409 471 36,000  Level Minneapolis Center
10:18PM 44.9992 -103.0903 290° West 412 474 36,000  Level Minneapolis Center
10:18PM 45.0117 -103.1444 288° West 410 472 36,000  Level Salt Lake Center
10:19PM 45.0497 -103.2889 290° West 409 471 36,000  Level Salt Lake Center
10:20PM 45.0872 -103.4353 290° West 413 475 36,000  Level Salt Lake Center
10:21PM 45.1314 -103.6061 290° West 414 476 36,000  Level Salt Lake Center
10:22PM 45.1700 -103.7531 290° West 417 480 36,000  Level Salt Lake Center
10:23PM 45.2094 -103.9164 289° West 414 476 36,000  Level Salt Lake Center
10:24PM 45.2486 -104.0717 290° West 418 481 36,000 -60 Level Salt Lake Center
10:25PM 45.2883 -104.2258 290° West 416 479 35,900  Descending Salt Lake Center
10:26PM 45.3267 -104.3831 289° West 420 483 36,000  Climbing Salt Lake Center
10:27PM 45.3689 -104.5550 289° West 423 487 36,000  Level Salt Lake Center
10:28PM 45.4058 -104.7061 289° West 423 487 36,000  Level Salt Lake Center
10:29PM 45.4489 -104.8839 289° West 426 490 36,000  Level Salt Lake Center
10:30PM 45.4861 -105.0361 289° West 426 490 36,000  Level Salt Lake Center
10:31PM 45.5228 -105.1875 289° West 424 488 36,000  Level Salt Lake Center
10:33PM 45.5731 -105.3955 289° West  Level FlightAware Approximate
10:33PM 45.6000 -105.5172 289° West 423 487 36,000  Level Salt Lake Center
10:34PM 45.6422 -105.6953 289° West 424 488 36,000  Level Salt Lake Center
10:35PM 45.6769 -105.8469 288° West 421 484 36,000  Level Salt Lake Center
10:36PM 45.7131 -106.0003 289° West 424 488 36,000  Level Salt Lake Center
10:37PM 45.7506 -106.1767 287° West 418 481 36,000  Level Salt Lake Center
10:38PM 45.7828 -106.3278 287° West 413 475 36,000  Level Salt Lake Center
10:39PM 45.8244 -106.5089 288° West 421 484 36,000  Level Salt Lake Center
10:40PM 45.8606 -106.6686 288° West 431 496 36,000  Level Salt Lake Center
10:41PM 45.9036 -106.8558 288° West 439 505 36,000  Level Salt Lake Center
10:42PM 45.9392 -107.0131 288° West 438 504 36,000  Level Salt Lake Center
10:43PM 45.9750 -107.1753 288° West 441 507 36,000  Level Salt Lake Center
10:44PM 46.0142 -107.3583 287° West 431 496 36,000  Level Salt Lake Center
10:45PM 46.0483 -107.5158 287° West 431 496 36,000  Level Salt Lake Center
10:47PM 46.0875 -107.7003 287° West 432 497 36,000  Level Salt Lake Center
10:48PM 46.1211 -107.8592 287° West 434 499 36,000  Level Salt Lake Center
10:49PM 46.1600 -108.0428 287° West 430 495 36,000  Level Salt Lake Center
10:50PM 46.1925 -108.2014 287° West 431 496 36,000  Level Salt Lake Center
10:51PM 46.2256 -108.3600 287° West 432 497 36,000  Level Salt Lake Center
10:52PM 46.2631 -108.5481 286° West 438 504 36,000  Level Salt Lake Center
10:53PM 46.2967 -108.7056 287° West 432 497 36,000  Level Salt Lake Center
10:54PM 46.3331 -108.8903 286° West 429 494 36,000  Level Salt Lake Center
10:55PM 46.3653 -109.0508 286° West 434 499 36,000  Level Salt Lake Center
10:56PM 46.3978 -109.2114 286° West 435 501 36,000  Level Salt Lake Center
10:57PM 46.4339 -109.4000 286° West 435 501 36,000  Level Salt Lake Center
10:58PM 46.4650 -109.5656 285° West 443 510 36,000  Level Salt Lake Center
10:59PM 46.5017 -109.7558 286° West 439 505 36,000  Level Salt Lake Center
11:00PM 46.5322 -109.9181 285° West 435 501 36,000  Level Salt Lake Center
11:01PM 46.5633 -110.0789 286° West 432 497 36,000  Level Salt Lake Center
11:02PM 46.5983 -110.2689 285° West 434 499 36,000  Level Salt Lake Center
11:03PM 46.6283 -110.4311 285° West 434 499 36,000 -60 Level Salt Lake Center
11:04PM 46.6606 -110.6081 285° West 432 497 35,900  Descending Salt Lake Center
11:05PM 46.6917 -110.7789 285° West 437 503 36,000  Climbing Salt Lake Center
11:06PM 46.7233 -110.9475 285° West 433 498 36,000 -60 Level Salt Lake Center
11:07PM 46.7522 -111.1183 284° West 434 499 35,900 -60 Descending Salt Lake Center
11:08PM 46.7819 -111.2878 284° West 432 497 35,900  Level Salt Lake Center
11:09PM 46.8122 -111.4575 285° West 432 497 35,900  Level Salt Lake Center
11:10PM 46.8417 -111.6264 284° West 431 496 36,000  Climbing Salt Lake Center
11:11PM 46.8706 -111.7972 284° West 431 496 35,900  Descending Salt Lake Center
11:12PM 46.9053 -111.9997 284° West 429 494 36,000  Climbing Salt Lake Center
11:13PM 46.9333 -112.1711 284° West 431 496 36,000 -60 Level Salt Lake Center
11:14PM 46.9614 -112.3419 284° West 432 497 35,900  Descending Salt Lake Center
11:15PM 46.9906 -112.5144 284° West 434 499 36,000  Climbing Salt Lake Center
11:16PM 47.0197 -112.6908 284° West 442 509 35,900  Descending Salt Lake Center
11:17PM 47.0478 -112.8622 284° West 437 503 36,000  Climbing Salt Lake Center
11:18PM 47.0747 -113.0339 283° West 435 501 35,900  Descending Salt Lake Center
11:19PM 47.1019 -113.2078 283° West 435 501 36,000  Climbing Salt Lake Center
11:20PM 47.1281 -113.3817 283° West 437 503 35,900  Descending Salt Lake Center
11:21PM 47.1553 -113.5539 283° West 434 499 36,000  Climbing Salt Lake Center
11:22PM 47.1814 -113.7267 283° West 434 499 36,000  Level Salt Lake Center
11:23PM 47.2128 -113.9328 283° West 431 496 36,000  Level Salt Lake Center
11:24PM 47.2375 -114.1061 282° West 432 497 36,000  Level Salt Lake Center
11:25PM 47.2647 -114.2764 283° West 429 494 36,000 -60 Level Salt Lake Center
11:26PM 47.2892 -114.4494 282° West 430 495 35,900  Descending Salt Lake Center
11:27PM 47.3147 -114.6211 282° West 428 493 36,000  Climbing Salt Lake Center
11:28PM 47.3381 -114.7911 282° West 424 488 36,000 -60 Level Salt Lake Center
11:29PM 47.3633 -114.9625 282° West 424 488 35,900  Descending Seattle Center
11:31PM 47.4100 -115.3006 282° West 421 484 36,000  Climbing Salt Lake Center
11:33PM 47.4339 -115.4706 282° West 423 487 36,000 -60 Level Salt Lake Center
11:34PM 47.4558 -115.6408 281° West 423 487 35,900  Descending Salt Lake Center
11:35PM 47.4672 -115.8133 276° West 424 488 36,000  Climbing Salt Lake Center
11:36PM 47.4775 -115.9900 275° West 423 487 35,900  Descending Seattle Center
11:37PM 47.4872 -116.1622 275° West 422 486 36,000  Climbing Seattle Center
11:38PM 47.4975 -116.3322 275° West 418 481 35,900  Descending Seattle Center
11:39PM 47.5069 -116.5042 275° West 421 484 36,000  Climbing Seattle Center
11:40PM 47.5169 -116.6778 275° West 424 488 35,900  Descending Seattle Center
11:41PM 47.5286 -116.8800 275° West 412 474 36,000  Climbing Seattle Center
11:42PM 47.5364 -117.0392 274° West 403 464 36,000 -60 Level Seattle Center
11:43PM 47.5442 -117.2017 274° West 399 459 35,900  Descending Seattle Center
11:44PM 47.5514 -117.3478 274° West 395 455 36,000  Climbing Seattle Center
11:45PM 47.5597 -117.5078 274° West 391 450 36,000  Level Seattle Center
11:46PM 47.5686 -117.6744 275° West 402 463 36,000  Level Seattle Center
11:47PM 47.5856 -117.8364 279° West 401 461 36,000 -60 Level Seattle Center
11:48PM 47.6033 -118.0294 278° West 396 456 35,900  Descending Seattle Center
11:49PM 47.6186 -118.1903 278° West 395 455 36,000  Climbing Seattle Center
11:50PM 47.6333 -118.3511 278° West 394 453 36,000  Level Seattle Center
11:51PM 47.6486 -118.5114 278° West 394 453 36,000  Level Seattle Center
11:52PM 47.6622 -118.6739 277° West 396 456 36,000 -60 Level Seattle Center
11:53PM 47.6753 -118.8328 277° West 392 451 35,900  Descending Seattle Center
11:54PM 47.6892 -118.9928 277° West 391 450 36,000  Climbing Seattle Center
11:55PM 47.7028 -119.1528 277° West 393 452 36,000  Level Seattle Center
11:56PM 47.7167 -119.3119 277° West 390 449 36,000 -60 Level Seattle Center
11:57PM 47.7283 -119.4725 276° West 392 451 35,900 -60 Descending Seattle Center
11:58PM 47.7433 -119.6297 278° West 387 445 35,900  Level Seattle Center
11:59PM 47.7536 -119.7883 276° West 388 447 36,000  Climbing Seattle Center
12:00AM 47.7647 -119.9483 276° West 390 449 36,000  Level Seattle Center
12:01AM 47.7781 -120.1072 277° West 388 447 36,000 -60 Level Seattle Center
12:02AM 47.7883 -120.2664 276° West 388 447 35,900 -60 Descending Seattle Center
12:03AM 47.8003 -120.4242 276° West 387 445 35,900 -240 Level Seattle Center
12:04AM 47.8144 -120.6117 276° West 382 440 35,500 -1,560 Descending Seattle Center
12:05AM 47.8247 -120.7667 276° West 379 436 32,800 -3,060 Descending Seattle Center
12:06AM 47.8358 -120.9325 276° West 421 484 29,300 -3,600 Descending Seattle Center
12:07AM 47.8494 -121.1097 277° West 434 499 25,600 -3,360 Descending Seattle Center
12:08AM 47.8600 -121.2808 275° West 421 484 22,600 -2,880 Descending Seattle Center
12:09AM 47.8703 -121.4433 275° West 403 464 19,900 -2,820 Descending Seattle Center
12:09AM 47.8750 -121.5158 276° West 388 447 18,900 -1,500 Descending Seattle Center
12:10AM 47.8803 -121.5989 275° West 385 443 18,400 -840 Descending Seattle Center
12:11AM 47.8564 -121.7439 256° West 380 437 17,500 -1,200 Descending Seattle Center
12:12AM 47.7803 -121.8481 223° Southwest 374 430 16,000 -2,280 Descending Seattle Center
12:13AM 47.6947 -121.9628 222° Southwest 349 402 12,900 -2,520 Descending Seattle Center
12:14AM 47.6131 -122.0739 223° Southwest 329 379 10,400 -1,500 Descending Seattle Center
12:15AM 47.5597 -122.1428 221° Southwest 306 352 9,900 -1,140 Descending Seattle Center
12:16AM 47.4886 -122.1761 198° South 294 338 8,400 -1,440 Descending Seattle Center
12:17AM 47.4089 -122.1753 180° South 289 333 7,000 -1,440 Descending Seattle Center
12:18AM 47.3317 -122.1742 179° South 281 323 5,600 -1,380 Descending Seattle Center
12:19AM 47.2586 -122.1844 185° South 267 307 4,300 -900 Descending Seattle Center
12:20AM 47.2439 -122.2519 252° West 220 253 3,800 -960 Descending Seattle Center
12:21AM 47.2867 -122.3050 320° Northwest 198 228 2,400 -1,320 Descending Seattle Center
12:21AM 47.2994 -122.3097 346° North 163 188 2,200 -240 Descending Seattle Center
12:22AM 47.3242 -122.3089 North 142 163 2,200 -240 Level Seattle Center
12:22AM 47.3417 -122.3094 359° North 126 145 2,000 -540 Descending Seattle Center
12:23AM 47.3611 -122.3086 North 134 154 1,700 -660 Descending Seattle Center
12:24AM 47.3819 -122.3103 357° North 132 152 1,300 -720 Descending Seattle Center
12:24AM 47.3978 -122.3089 North 133 153 1,000 -720 Descending Seattle Center
12:25AM 47.4194 -122.3092 360° North 135 155 600 -600 Descending Seattle Center
12:25AM 47.4378 -122.3086 North 137 158 400 -360 Descending Seattle Center